createdAt,value
2022-07-31T00:00:20.279Z,23.10
2022-07-31T00:02:47.194Z,23.10
2022-07-31T00:05:14.207Z,23.10
2022-07-31T00:07:41.045Z,23.10
2022-07-31T00:10:08.407Z,23.00
2022-07-31T00:12:35.643Z,23.00
2022-07-31T00:15:05.656Z,23.00
2022-07-31T00:17:32.719Z,23.00
2022-07-31T00:19:59.660Z,22.90
2022-07-31T00:22:26.458Z,22.90
2022-07-31T00:24:53.256Z,22.90
2022-07-31T00:27:20.005Z,22.90
2022-07-31T00:29:46.919Z,22.90
2022-07-31T00:32:13.664Z,22.90
2022-07-31T00:34:40.432Z,22.90
2022-07-31T00:37:07.389Z,22.80
2022-07-31T00:39:34.355Z,22.80
2022-07-31T00:42:01.074Z,22.80
2022-07-31T00:44:28.058Z,22.80
2022-07-31T00:46:55.047Z,22.70
2022-07-31T00:49:21.875Z,22.70
2022-07-31T00:51:48.683Z,22.70
2022-07-31T00:54:22.590Z,22.60
2022-07-31T00:56:51.292Z,22.60
2022-07-31T00:59:24.313Z,22.50
2022-07-31T01:01:51.792Z,22.50
2022-07-31T01:04:19.874Z,22.40
2022-07-31T01:06:47.498Z,22.40
2022-07-31T01:09:14.866Z,22.30
2022-07-31T01:12:02.817Z,22.30
2022-07-31T01:14:33.870Z,22.30
2022-07-31T01:17:02.814Z,22.20
2022-07-31T01:19:50.473Z,22.20
2022-07-31T01:22:47.810Z,22.10
2022-07-31T01:25:48.338Z,22.10
2022-07-31T01:28:45.821Z,22.00
2022-07-31T01:31:27.224Z,22.00
2022-07-31T01:34:03.990Z,21.90
2022-07-31T01:36:35.068Z,21.90
2022-07-31T01:39:03.884Z,21.80
2022-07-31T01:41:36.070Z,21.80
2022-07-31T01:44:05.361Z,21.80
2022-07-31T01:46:37.371Z,21.80
2022-07-31T01:49:10.881Z,21.80
2022-07-31T01:51:39.305Z,21.70
2022-07-31T01:54:07.379Z,21.80
2022-07-31T01:56:35.867Z,21.70
2022-07-31T01:59:03.943Z,21.70
2022-07-31T02:01:32.872Z,21.70
2022-07-31T02:04:02.895Z,21.60
2022-07-31T02:06:30.118Z,21.60
2022-07-31T02:08:58.505Z,21.60
2022-07-31T02:11:25.411Z,21.60
2022-07-31T02:13:53.410Z,21.60
2022-07-31T02:16:21.079Z,21.50
2022-07-31T02:18:50.964Z,21.50
2022-07-31T02:21:17.960Z,21.50
2022-07-31T02:23:44.930Z,21.50
2022-07-31T02:26:13.151Z,21.50
2022-07-31T02:28:42.587Z,21.40
2022-07-31T02:31:13.023Z,21.40
2022-07-31T02:33:43.270Z,21.40
2022-07-31T02:36:12.832Z,21.40
2022-07-31T02:38:40.991Z,21.40
2022-07-31T02:41:09.694Z,21.40
2022-07-31T02:43:37.653Z,21.40
2022-07-31T02:46:08.054Z,21.40
2022-07-31T02:48:37.106Z,21.40
2022-07-31T02:51:04.580Z,21.40
2022-07-31T02:53:32.090Z,21.40
2022-07-31T02:55:59.519Z,21.40
2022-07-31T02:58:26.285Z,21.30
2022-07-31T03:01:03.952Z,21.30
2022-07-31T03:03:31.063Z,21.30
2022-07-31T03:05:58.209Z,21.30
2022-07-31T03:08:25.078Z,21.40
2022-07-31T03:10:51.826Z,21.30
2022-07-31T03:13:20.844Z,21.40
2022-07-31T03:15:50.199Z,21.40
2022-07-31T03:18:21.826Z,21.40
2022-07-31T03:20:52.923Z,21.40
2022-07-31T03:23:22.880Z,21.40
2022-07-31T03:25:51.106Z,21.50
2022-07-31T03:28:21.778Z,21.50
2022-07-31T03:30:55.278Z,21.50
2022-07-31T03:33:23.594Z,21.50
2022-07-31T03:35:50.977Z,21.60
2022-07-31T03:38:40.696Z,21.60
2022-07-31T03:41:05.054Z,21.60
2022-07-31T03:43:44.163Z,21.60
2022-07-31T03:46:18.489Z,21.50
2022-07-31T03:48:45.871Z,21.50
2022-07-31T03:51:13.671Z,21.60
2022-07-31T03:53:41.522Z,21.60
2022-07-31T03:56:09.986Z,21.60
2022-07-31T03:58:37.904Z,21.60
2022-07-31T04:01:10.555Z,21.60
2022-07-31T04:03:39.299Z,21.60
2022-07-31T04:06:06.344Z,21.60
2022-07-31T04:08:34.280Z,21.60
2022-07-31T04:11:01.030Z,21.70
2022-07-31T04:13:28.443Z,21.70
2022-07-31T04:15:55.257Z,21.70
2022-07-31T04:18:22.031Z,21.60
2022-07-31T04:20:48.782Z,21.60
2022-07-31T04:23:16.668Z,21.70
2022-07-31T04:25:43.440Z,21.70
2022-07-31T04:28:10.226Z,21.70
2022-07-31T04:30:37.799Z,21.70
2022-07-31T04:33:04.618Z,21.70
2022-07-31T04:35:31.377Z,21.70
2022-07-31T04:37:58.112Z,21.70
2022-07-31T04:40:26.352Z,21.70
2022-07-31T04:42:56.525Z,21.70
2022-07-31T04:45:23.265Z,21.70
2022-07-31T04:47:50.027Z,21.80
2022-07-31T04:50:16.753Z,21.80
2022-07-31T04:52:43.476Z,21.80
2022-07-31T04:55:10.300Z,21.80
2022-07-31T04:57:37.105Z,21.70
2022-07-31T05:00:06.052Z,21.80
2022-07-31T05:02:32.793Z,21.80
2022-07-31T05:04:59.514Z,21.80
2022-07-31T05:07:28.661Z,21.80
2022-07-31T05:09:56.704Z,21.90
2022-07-31T05:12:23.450Z,21.80
2022-07-31T05:14:50.354Z,21.90
2022-07-31T05:17:17.269Z,21.90
2022-07-31T05:19:44.031Z,21.90
2022-07-31T05:22:11.514Z,21.90
2022-07-31T05:24:38.637Z,21.90
2022-07-31T05:27:05.517Z,21.90
2022-07-31T05:29:33.368Z,21.90
2022-07-31T05:32:01.355Z,22.00
2022-07-31T05:34:31.216Z,22.00
2022-07-31T05:37:02.457Z,22.00
2022-07-31T05:39:29.573Z,22.00
2022-07-31T05:41:56.370Z,22.10
2022-07-31T05:44:23.214Z,22.10
2022-07-31T05:49:16.245Z,22.10
2022-07-31T05:51:44.049Z,22.20
2022-07-31T05:54:10.862Z,22.10
2022-07-31T05:56:37.628Z,22.10
2022-07-31T05:59:04.410Z,22.20
2022-07-31T06:01:31.353Z,22.10
2022-07-31T06:03:58.152Z,22.10
2022-07-31T06:06:24.887Z,22.20
2022-07-31T06:08:51.666Z,22.20
2022-07-31T06:11:18.458Z,22.20
2022-07-31T06:13:45.323Z,22.20
2022-07-31T06:16:13.876Z,22.20
2022-07-31T06:18:41.057Z,22.20
2022-07-31T06:21:07.846Z,22.20
2022-07-31T06:23:34.563Z,22.30
2022-07-31T06:26:01.796Z,22.30
2022-07-31T06:28:37.878Z,22.30
2022-07-31T06:31:19.667Z,22.30
2022-07-31T06:33:48.044Z,22.40
2022-07-31T06:36:15.961Z,22.40
2022-07-31T06:38:42.718Z,22.40
2022-07-31T06:41:09.604Z,22.40
2022-07-31T06:43:36.401Z,22.50
2022-07-31T06:46:03.144Z,22.50
2022-07-31T06:48:30.054Z,22.50
2022-07-31T06:51:14.370Z,22.50
2022-07-31T06:53:43.724Z,22.50
2022-07-31T06:56:10.463Z,22.50
2022-07-31T06:58:37.247Z,22.50
2022-07-31T07:01:04.017Z,22.60
2022-07-31T07:03:30.819Z,22.70
2022-07-31T07:05:57.541Z,22.70
2022-07-31T07:08:25.091Z,22.70
2022-07-31T07:10:51.993Z,22.70
2022-07-31T07:13:18.790Z,22.70
2022-07-31T07:15:45.818Z,22.70
2022-07-31T07:18:12.900Z,22.60
2022-07-31T07:20:39.977Z,22.50
2022-07-31T07:23:06.720Z,22.50
2022-07-31T07:25:33.472Z,22.50
2022-07-31T07:28:00.211Z,22.50
2022-07-31T07:30:28.613Z,22.50
2022-07-31T07:32:55.668Z,22.60
2022-07-31T07:35:22.473Z,22.60
2022-07-31T07:37:49.265Z,22.60
2022-07-31T07:40:17.142Z,22.50
2022-07-31T07:42:43.937Z,22.50
2022-07-31T07:45:11.140Z,22.50
2022-07-31T07:47:53.854Z,22.50
2022-07-31T07:50:26.893Z,22.50
2022-07-31T07:52:55.508Z,22.60
2022-07-31T07:55:22.511Z,22.70
2022-07-31T07:57:49.308Z,22.70
2022-07-31T08:00:16.286Z,22.80
2022-07-31T08:02:44.925Z,22.90
2022-07-31T08:05:31.571Z,22.90
2022-07-31T08:07:58.371Z,23.00
2022-07-31T08:10:25.182Z,23.10
2022-07-31T08:12:54.675Z,23.20
2022-07-31T08:15:21.570Z,23.20
2022-07-31T08:17:48.312Z,23.30
2022-07-31T08:20:15.044Z,23.30
2022-07-31T08:22:41.789Z,23.40
2022-07-31T08:25:11.286Z,23.30
2022-07-31T08:27:41.876Z,23.50
2022-07-31T08:30:09.922Z,23.70
2022-07-31T08:32:38.628Z,23.80
2022-07-31T08:35:06.085Z,23.90
2022-07-31T08:37:52.670Z,23.80
2022-07-31T08:40:20.757Z,23.80
2022-07-31T08:42:47.609Z,24.00
2022-07-31T08:45:15.186Z,24.10
2022-07-31T08:47:48.226Z,24.00
2022-07-31T08:50:16.235Z,24.00
2022-07-31T08:52:45.290Z,24.20
2022-07-31T08:55:55.311Z,24.40
2022-07-31T08:58:00.218Z,24.50
2022-07-31T09:00:28.791Z,24.60
2022-07-31T09:02:55.810Z,24.90
2022-07-31T09:05:22.741Z,25.00
2022-07-31T09:07:49.628Z,25.00
2022-07-31T09:10:27.908Z,25.00
2022-07-31T09:12:56.285Z,24.80
2022-07-31T09:15:24.495Z,24.70
2022-07-31T09:17:53.859Z,24.60
2022-07-31T09:20:26.577Z,24.60
2022-07-31T09:23:08.700Z,24.70
2022-07-31T09:25:36.169Z,24.80
2022-07-31T09:28:05.709Z,24.60
2022-07-31T09:30:33.143Z,24.70
2022-07-31T09:33:19.316Z,24.60
2022-07-31T09:35:50.101Z,24.70
2022-07-31T09:38:17.976Z,24.80
2022-07-31T09:40:57.540Z,24.90
2022-07-31T09:43:25.918Z,25.00
2022-07-31T09:46:00.419Z,25.00
2022-07-31T09:48:28.474Z,25.20
2022-07-31T09:50:56.626Z,25.40
2022-07-31T09:53:24.285Z,25.50
2022-07-31T09:55:52.247Z,25.50
2022-07-31T09:58:19.475Z,25.50
2022-07-31T10:00:48.041Z,25.60
2022-07-31T10:03:18.768Z,25.80
2022-07-31T10:05:47.414Z,26.00
2022-07-31T10:08:14.839Z,26.10
2022-07-31T10:10:45.799Z,26.10
2022-07-31T10:13:19.262Z,26.10
2022-07-31T10:15:48.526Z,26.20
2022-07-31T10:18:36.452Z,26.20
2022-07-31T10:21:06.820Z,26.30
2022-07-31T10:23:38.986Z,26.10
2022-07-31T10:26:05.890Z,25.90
2022-07-31T10:28:33.210Z,25.80
2022-07-31T10:30:59.963Z,25.80
2022-07-31T10:33:43.516Z,25.80
2022-07-31T10:36:25.355Z,25.90
2022-07-31T10:39:04.225Z,25.90
2022-07-31T10:41:40.568Z,26.10
2022-07-31T10:44:27.537Z,26.30
2022-07-31T10:46:54.332Z,26.40
2022-07-31T10:49:41.480Z,26.30
2022-07-31T10:52:08.382Z,26.30
2022-07-31T10:54:47.745Z,26.50
2022-07-31T10:57:29.083Z,26.60
2022-07-31T10:59:56.463Z,26.60
2022-07-31T11:02:35.003Z,26.60
2022-07-31T11:05:23.355Z,26.60
2022-07-31T11:08:01.269Z,26.90
2022-07-31T11:10:28.172Z,27.40
2022-07-31T11:13:10.895Z,27.50
2022-07-31T11:15:37.736Z,27.60
2022-07-31T11:18:24.306Z,27.80
2022-07-31T11:21:13.557Z,27.70
2022-07-31T11:23:56.179Z,27.70
2022-07-31T11:26:33.726Z,27.70
2022-07-31T11:30:00.510Z,27.70
2022-07-31T11:32:17.674Z,27.90
2022-07-31T11:34:56.494Z,27.90
2022-07-31T11:37:46.199Z,28.10
2022-07-31T11:40:15.704Z,28.40
2022-07-31T11:42:45.951Z,28.40
2022-07-31T11:45:15.117Z,28.30
2022-07-31T11:48:10.838Z,28.20
2022-07-31T11:50:42.201Z,28.20
2022-07-31T11:53:09.277Z,28.20
2022-07-31T11:55:48.766Z,28.20
2022-07-31T11:58:17.118Z,28.00
2022-07-31T12:00:55.010Z,27.90
2022-07-31T12:03:25.226Z,27.80
2022-07-31T12:05:53.210Z,27.90
2022-07-31T12:08:21.305Z,28.10
2022-07-31T12:10:48.947Z,28.20
2022-07-31T12:13:19.340Z,28.10
2022-07-31T12:15:58.033Z,28.30
2022-07-31T12:18:26.380Z,28.60
2022-07-31T12:20:58.351Z,28.60
2022-07-31T12:23:40.678Z,28.60
2022-07-31T12:26:10.607Z,28.70
2022-07-31T12:28:37.588Z,29.00
2022-07-31T12:31:04.600Z,29.30
2022-07-31T12:33:40.973Z,29.60
2022-07-31T12:36:16.275Z,29.60
2022-07-31T12:38:47.822Z,29.20
2022-07-31T12:41:15.417Z,29.20
2022-07-31T12:43:50.796Z,29.20
2022-07-31T12:46:20.836Z,29.10
2022-07-31T12:48:47.655Z,29.10
2022-07-31T12:51:14.584Z,29.30
2022-07-31T12:53:41.334Z,29.40
2022-07-31T12:56:12.340Z,29.70
2022-07-31T12:58:39.092Z,29.50
2022-07-31T13:01:05.849Z,29.50
2022-07-31T13:03:45.945Z,30.00
2022-07-31T13:06:14.209Z,30.10
2022-07-31T13:08:43.791Z,30.40
2022-07-31T13:11:10.838Z,30.30
2022-07-31T13:13:37.613Z,30.20
2022-07-31T13:16:04.533Z,29.80
2022-07-31T13:18:32.499Z,29.50
2022-07-31T13:21:00.478Z,29.50
2022-07-31T13:23:27.487Z,29.30
2022-07-31T13:25:54.417Z,29.80
2022-07-31T13:28:21.597Z,29.90
2022-07-31T13:30:53.211Z,30.00
2022-07-31T13:33:21.770Z,30.00
2022-07-31T13:35:48.478Z,30.10
2022-07-31T13:38:15.211Z,30.40
2022-07-31T13:41:00.348Z,30.10
2022-07-31T13:43:27.064Z,30.00
2022-07-31T13:45:53.959Z,29.70
2022-07-31T13:48:20.802Z,29.90
2022-07-31T13:50:47.566Z,29.50
2022-07-31T13:53:14.295Z,29.40
2022-07-31T13:55:41.124Z,29.10
2022-07-31T13:58:08.560Z,29.10
2022-07-31T14:00:35.553Z,29.00
2022-07-31T14:03:02.338Z,29.00
2022-07-31T14:05:29.118Z,28.90
2022-07-31T14:07:56.411Z,28.90
2022-07-31T14:10:43.582Z,28.80
2022-07-31T14:13:16.101Z,28.50
2022-07-31T14:15:43.286Z,28.40
2022-07-31T14:18:10.276Z,28.40
2022-07-31T14:20:37.439Z,28.40
2022-07-31T14:23:06.032Z,28.40
2022-07-31T14:25:32.851Z,28.40
2022-07-31T14:28:00.038Z,28.30
2022-07-31T14:30:27.024Z,28.30
2022-07-31T14:32:55.305Z,28.10
2022-07-31T14:35:22.083Z,28.10
2022-07-31T14:37:48.869Z,28.00
2022-07-31T14:40:16.132Z,28.10
2022-07-31T14:42:43.422Z,28.00
2022-07-31T14:45:11.835Z,28.00
2022-07-31T14:47:38.572Z,28.20
2022-07-31T14:50:10.617Z,28.40
2022-07-31T14:52:39.636Z,28.60
2022-07-31T14:55:06.785Z,28.90
2022-07-31T14:57:33.722Z,28.90
2022-07-31T15:00:00.630Z,29.00
2022-07-31T15:02:27.547Z,29.00
2022-07-31T15:04:54.599Z,28.90
2022-07-31T15:07:41.263Z,28.80
2022-07-31T15:10:10.750Z,29.00
2022-07-31T15:12:37.898Z,29.10
2022-07-31T15:15:06.345Z,29.50
2022-07-31T15:17:34.089Z,29.60
2022-07-31T15:20:00.839Z,29.60
2022-07-31T15:22:27.781Z,29.50
2022-07-31T15:24:54.543Z,29.40
2022-07-31T15:27:24.993Z,29.40
2022-07-31T15:30:05.994Z,29.50
2022-07-31T15:32:35.975Z,29.40
2022-07-31T15:35:04.318Z,29.20
2022-07-31T15:37:34.632Z,29.10
2022-07-31T15:40:03.815Z,29.10
2022-07-31T15:42:32.006Z,29.20
2022-07-31T15:44:58.953Z,29.10
2022-07-31T15:47:25.835Z,29.00
2022-07-31T15:49:52.712Z,29.00
2022-07-31T15:52:19.769Z,28.90
2022-07-31T15:54:47.040Z,29.00
2022-07-31T15:57:14.574Z,29.00
2022-07-31T15:59:41.849Z,29.00
2022-07-31T16:02:08.742Z,28.90
2022-07-31T16:04:38.208Z,28.90
2022-07-31T16:08:28.940Z,28.80
2022-07-31T16:10:15.866Z,28.70
2022-07-31T16:12:47.885Z,28.70
2022-07-31T16:15:16.484Z,28.60
2022-07-31T16:17:44.442Z,28.60
2022-07-31T16:20:25.357Z,28.60
2022-07-31T16:22:58.840Z,28.40
2022-07-31T16:25:27.193Z,28.30
2022-07-31T16:27:54.614Z,28.20
2022-07-31T16:30:22.129Z,28.30
2022-07-31T16:32:49.777Z,28.20
2022-07-31T16:35:16.545Z,28.10
2022-07-31T16:37:51.951Z,27.90
2022-07-31T16:40:30.793Z,27.90
2022-07-31T16:43:47.532Z,27.90
2022-07-31T16:45:50.899Z,27.80
2022-07-31T16:48:18.076Z,27.60
2022-07-31T16:50:44.947Z,27.60
2022-07-31T16:54:10.048Z,27.60
2022-07-31T16:56:02.011Z,27.60
2022-07-31T16:58:29.359Z,27.60
2022-07-31T17:00:56.299Z,27.60
2022-07-31T17:03:58.810Z,27.70
2022-07-31T17:06:11.504Z,27.90
2022-07-31T17:08:38.481Z,27.90
2022-07-31T17:11:05.686Z,27.90
2022-07-31T17:13:32.652Z,28.00
2022-07-31T17:15:59.400Z,27.80
2022-07-31T17:18:26.507Z,27.80
2022-07-31T17:20:55.745Z,27.80
2022-07-31T17:23:33.203Z,27.70
2022-07-31T17:26:20.802Z,27.50
2022-07-31T17:28:49.875Z,27.40
2022-07-31T17:31:16.961Z,27.40
2022-07-31T17:33:49.613Z,27.30
2022-07-31T17:36:28.824Z,27.20
2022-07-31T17:38:57.308Z,27.00
2022-07-31T17:41:25.920Z,27.00
2022-07-31T17:43:54.673Z,27.00
2022-07-31T17:46:34.634Z,27.00
2022-07-31T17:49:09.899Z,26.90
2022-07-31T17:51:36.878Z,27.00
2022-07-31T17:54:04.825Z,26.90
2022-07-31T17:56:31.668Z,26.90
2022-07-31T17:59:04.403Z,26.90
2022-07-31T18:01:33.513Z,26.80
2022-07-31T18:04:01.450Z,26.70
2022-07-31T18:06:28.497Z,26.60
2022-07-31T18:08:55.580Z,26.60
2022-07-31T18:11:22.516Z,26.60
2022-07-31T18:13:51.799Z,26.50
2022-07-31T18:16:23.224Z,26.40
2022-07-31T18:18:54.184Z,26.40
2022-07-31T18:21:21.440Z,26.30
2022-07-31T18:23:48.158Z,26.30
2022-07-31T18:26:15.400Z,26.20
2022-07-31T18:28:42.226Z,26.20
2022-07-31T18:31:32.386Z,26.20
2022-07-31T18:33:55.933Z,26.10
2022-07-31T18:36:23.272Z,26.10
2022-07-31T18:38:51.937Z,26.10
2022-07-31T18:41:18.814Z,26.00
2022-07-31T18:43:45.644Z,26.00
2022-07-31T18:46:12.496Z,25.90
2022-07-31T18:48:39.246Z,25.80
2022-07-31T18:51:06.139Z,25.70
2022-07-31T18:53:35.774Z,25.60
2022-07-31T18:56:02.947Z,25.60
2022-07-31T18:58:29.733Z,25.60
2022-07-31T19:00:56.651Z,25.60
2022-07-31T19:03:25.790Z,25.50
2022-07-31T19:05:53.519Z,25.50
2022-07-31T19:08:20.933Z,25.50
2022-07-31T19:10:49.617Z,25.50
2022-07-31T19:13:19.083Z,25.40
2022-07-31T19:15:51.427Z,25.30
2022-07-31T19:18:19.807Z,25.30
2022-07-31T19:21:00.181Z,25.30
2022-07-31T19:23:42.258Z,25.20
2022-07-31T19:26:08.962Z,25.10
2022-07-31T19:28:38.255Z,25.00
2022-07-31T19:31:05.510Z,25.00
2022-07-31T19:33:32.349Z,24.90
2022-07-31T19:36:02.216Z,24.80
2022-07-31T19:38:40.466Z,24.80
2022-07-31T19:41:07.193Z,24.80
2022-07-31T19:43:34.191Z,24.80
2022-07-31T19:46:11.907Z,24.80
2022-07-31T19:48:44.472Z,24.80
2022-07-31T19:51:12.814Z,24.70
2022-07-31T19:53:40.107Z,24.70
2022-07-31T19:56:07.124Z,24.60
2022-07-31T19:58:35.372Z,24.60
2022-07-31T20:01:03.414Z,24.60
2022-07-31T20:03:30.422Z,24.60
2022-07-31T20:05:58.403Z,24.60
2022-07-31T20:08:25.640Z,24.50
2022-07-31T20:10:52.565Z,24.50
2022-07-31T20:13:19.635Z,24.40
2022-07-31T20:15:50.863Z,24.40
2022-07-31T20:18:26.727Z,24.40
2022-07-31T20:20:59.846Z,24.40
2022-07-31T20:23:27.469Z,24.30
2022-07-31T20:25:54.534Z,24.40
2022-07-31T20:28:21.738Z,24.30
2022-07-31T20:30:48.924Z,24.30
2022-07-31T20:33:15.751Z,24.30
2022-07-31T20:35:48.598Z,24.30
2022-07-31T20:38:19.904Z,24.30
2022-07-31T20:40:53.726Z,24.40
2022-07-31T20:43:21.674Z,24.30
2022-07-31T20:45:48.577Z,24.30
2022-07-31T20:48:21.022Z,24.20
2022-07-31T20:50:48.600Z,23.90
2022-07-31T20:53:16.396Z,23.80
2022-07-31T20:55:46.959Z,23.60
2022-07-31T20:58:14.458Z,23.50
2022-07-31T21:00:42.105Z,23.30
2022-07-31T21:03:09.032Z,23.20
2022-07-31T21:05:35.764Z,23.10
2022-07-31T21:08:02.710Z,23.00
2022-07-31T21:10:30.021Z,22.90
2022-07-31T21:12:57.535Z,22.80
2022-07-31T21:15:44.038Z,22.70
2022-07-31T21:18:15.134Z,22.70
2022-07-31T21:20:51.678Z,22.70
2022-07-31T21:23:22.486Z,22.60
2022-07-31T21:25:50.268Z,22.50
2022-07-31T21:28:17.322Z,22.50
2022-07-31T21:30:44.310Z,22.40
2022-07-31T21:33:11.438Z,22.40
2022-07-31T21:35:40.059Z,22.40
2022-07-31T21:38:11.799Z,22.40
2022-07-31T21:40:39.849Z,22.40
2022-07-31T21:43:06.977Z,22.30
2022-07-31T21:45:47.767Z,22.30
2022-07-31T21:48:23.633Z,22.30
2022-07-31T21:50:50.847Z,22.30
2022-07-31T21:53:17.606Z,22.30
2022-07-31T21:55:44.338Z,22.30
2022-07-31T21:58:11.540Z,22.30
2022-07-31T22:00:38.562Z,22.20
2022-07-31T22:03:05.820Z,22.30
2022-07-31T22:05:51.995Z,22.30
2022-07-31T22:08:19.490Z,22.20
2022-07-31T22:10:47.055Z,22.10
2022-07-31T22:13:13.871Z,22.10
2022-07-31T22:15:51.407Z,22.10
2022-07-31T22:18:32.823Z,22.10
2022-07-31T22:21:01.318Z,22.10
2022-07-31T22:23:28.529Z,22.10
2022-07-31T22:25:56.129Z,22.30
2022-07-31T22:28:24.475Z,22.30
2022-07-31T22:30:51.888Z,22.30
2022-07-31T22:33:19.268Z,22.30
2022-07-31T22:35:58.616Z,22.30
2022-07-31T22:38:29.556Z,22.30
2022-07-31T22:40:57.022Z,22.30
2022-07-31T22:44:13.324Z,22.40
2022-07-31T22:46:13.139Z,22.30
2022-07-31T22:48:40.723Z,22.40
2022-07-31T22:51:08.801Z,22.40
2022-07-31T22:53:36.236Z,22.50
2022-07-31T22:56:03.612Z,22.50
2022-07-31T22:58:30.477Z,22.50
2022-07-31T23:00:57.337Z,22.40
2022-07-31T23:03:24.087Z,22.40
2022-07-31T23:06:03.525Z,22.40
2022-07-31T23:08:37.590Z,22.50
2022-07-31T23:11:04.566Z,22.50
2022-07-31T23:13:31.305Z,22.50
2022-07-31T23:15:59.958Z,22.50
2022-07-31T23:18:28.197Z,22.50
2022-07-31T23:20:54.928Z,22.50
2022-07-31T23:23:21.658Z,22.60
2022-07-31T23:25:48.391Z,22.60
2022-07-31T23:28:15.083Z,22.60
2022-07-31T23:30:41.840Z,22.60
2022-07-31T23:33:08.573Z,22.70
2022-07-31T23:35:35.338Z,22.60
2022-07-31T23:38:02.065Z,22.60
2022-07-31T23:40:28.919Z,22.60
2022-07-31T23:42:55.645Z,22.60
2022-07-31T23:45:23.539Z,22.60
2022-07-31T23:47:50.574Z,22.60
2022-07-31T23:50:17.814Z,22.60
2022-07-31T23:52:44.940Z,22.60
2022-07-31T23:55:13.233Z,22.60
2022-07-31T23:57:40.749Z,22.60
